Flight Track Log - Related Links

Times and Time Zones

All times are in EDT time to prevent confusion due to time zone crossing. See the SWA37 flight status page for this flight to view local times or setup timezone preferences in your user account.

Time Position Orientation Groundspeed Altitude Reporting Facility
EDT Latitude Longitude Course Direction KTS MPH feet Rate Location/Type
Thu 04:38:05 PM 32.8333 -96.8333 140° Southeast 173 199 1,500  Level Dallas / Fort Worth TRACON
Thu 04:39:17 PM 32.7667 -96.7667 140° Southeast 238 274 4,400 2,591 Climbing Dallas / Fort Worth TRACON
Thu 04:40:17 PM 32.7167 -96.7333 151° Southeast 275 316 7,200 2,647 Climbing Dallas / Fort Worth TRACON
Thu 04:41:33 PM 32.6208 -96.7475 187° South 294 338 10,400 1,412 Climbing Fort Worth Center
Thu 04:42:33 PM 32.5375 -96.7925 204° Southwest 295 339 10,400 1,100 Level Fort Worth Center
Thu 04:43:33 PM 32.4625 -96.8347 205° Southwest 317 365 12,600 2,650 Climbing Fort Worth Center
Thu 04:44:33 PM 32.3667 -96.8894 206° Southwest 342 394 15,700 2,700 Climbing Fort Worth Center
Thu 04:45:33 PM 32.2731 -96.9392 204° Southwest 356 410 18,000 2,300 Climbing Fort Worth Center
Thu 04:46:33 PM 32.1686 -96.9200 171° South 367 422 20,300 1,950 Climbing Fort Worth Center
Thu 04:47:33 PM 32.0642 -96.9011 171° South 372 428 21,900 1,850 Climbing Fort Worth Center
Thu 04:48:33 PM 31.9575 -96.8794 170° South 387 445 24,000 1,800 Climbing Fort Worth Center
Thu 04:49:33 PM 31.8406 -96.8606 172° South 411 473 25,500 1,731 Climbing Fort Worth Center
Thu 04:50:17 PM 31.7608 -96.8472 172° South 422 486 27,000 1,642 Climbing Houston Center
Thu 04:51:19 PM 31.6444 -96.8275 172° South 420 483 28,400 1,344 Climbing Houston Center
Thu 04:52:22 PM 31.5233 -96.8075 172° South 431 496 29,800 1,248 Climbing Houston Center
Thu 04:53:24 PM 31.4003 -96.7858 171° South 441 507 31,000 1,016 Climbing Houston Center
Thu 04:54:26 PM 31.2814 -96.7297 158° South 457 526 31,900 919 Climbing Houston Center
Thu 04:55:28 PM 31.1642 -96.6728 157° South 451 519 32,900 -1,113 Climbing Houston Center
Thu 04:56:30 PM 31.0283 -96.6061 157° South 448 516 29,600 -2,903 Descending Houston Center
Thu 04:57:32 PM 30.9133 -96.5503 157° South 444 511 26,900 -2,516 Descending Houston Center
Thu 04:58:34 PM 30.8017 -96.4961 157° South 432 497 24,400 -2,371 Descending Houston Center
Thu 04:59:36 PM 30.6939 -96.4425 157° South 419 482 22,000 -1,935 Descending Houston Center
Thu 05:00:38 PM 30.5950 -96.3953 158° South 384 442 20,400 -1,839 Descending Houston Center
Thu 05:01:40 PM 30.5011 -96.3478 156° South 366 421 18,200 -2,177 Descending Houston Center
Thu 05:02:42 PM 30.4069 -96.3028 158° South 362 417 15,900 -2,352 Descending Houston Center
Thu 05:03:45 PM 30.3125 -96.2575 158° South 361 415 13,300 -2,054 Descending Houston Center
Thu 05:05:11 PM 30.1753 -96.1922 158° South 335 386 10,800 -1,403 Descending Houston Center
Thu 05:05:49 PM 30.1219 -96.1614 153° Southeast 333 383 10,400 -540 Descending Houston Center
Thu 05:06:51 PM 30.0486 -96.1006 144° Southeast 333 383 9,900 -194 Descending Houston Center
Thu 05:07:53 PM 30.0206 -96.0119 110° East 327 376 10,000 -48 Climbing Houston Center
Thu 05:08:55 PM 29.9800 -95.9006 113° Southeast 313 360 9,800 -1,113 Descending Houston Center
Thu 05:09:57 PM 29.9456 -95.8164 115° Southeast 292 336 7,700 -1,645 Descending Houston Center
Thu 05:10:59 PM 29.9131 -95.7342 114° Southeast 283 326 6,400 -823 Descending Houston Center
Thu 05:12:01 PM 29.8811 -95.6553 115° Southeast 272 313 6,000 -242 Descending Houston Center
Thu 05:13:03 PM 29.8481 -95.5756 116° Southeast 276 318 5,900 -484 Descending Houston Center
Thu 05:14:05 PM 29.8217 -95.5097 115° Southeast 233 268 5,000 -1,333 Descending Houston Center
Thu 05:15:18 PM 29.7697 -95.4269 126° Southeast 227 261 2,900 -1,200 Descending Houston Center
Thu 05:16:20 PM 29.7300 -95.3811 135° Southeast 186 214 2,300 -737 Descending Houston Center
Thu 05:17:12 PM 29.7039 -95.3483 133° Southeast 202 232 1,500 -789 Descending Houston Center
Thu 05:18:14 PM 29.6756 -95.3153 135° Southeast 169 194 800 -677 Descending Houston Center
Thu 05:19:16 PM 29.6506 -95.2856 134° Southeast 145 167 100 -677 Descending Houston Center
Thu 05:21:00 PM 29.6454 -95.2789 123° Southeast  Level Estimated

Login

Don't have an account? Register now (free) for customized features, flight alerts, and more!